createdAt,value
2019-01-14T00:01:39.711Z,73.79
2019-01-14T00:06:46.608Z,73.22
2019-01-14T00:11:52.270Z,73.27
2019-01-14T00:16:57.862Z,73.57
2019-01-14T00:22:05.101Z,72.57
2019-01-14T00:27:11.123Z,71.69
2019-01-14T00:32:16.687Z,71.66
2019-01-14T00:37:22.277Z,72.05
2019-01-14T00:42:28.152Z,71.85
2019-01-14T00:47:33.765Z,71.80
2019-01-14T00:52:39.349Z,71.41
2019-01-14T00:57:44.982Z,71.75
2019-01-14T01:02:50.765Z,71.83
2019-01-14T01:07:56.346Z,70.47
2019-01-14T01:13:02.404Z,69.82
2019-01-14T01:18:08.192Z,69.78
2019-01-14T01:23:15.098Z,66.00
2019-01-14T01:28:20.755Z,65.37
2019-01-14T01:33:26.355Z,64.43
2019-01-14T01:38:31.930Z,65.16
2019-01-14T01:43:38.944Z,65.20
2019-01-14T01:48:44.618Z,65.30
2019-01-14T01:53:50.237Z,66.61
2019-01-14T01:58:55.867Z,66.28
2019-01-14T02:04:05.032Z,65.94
2019-01-14T02:09:11.008Z,65.02
2019-01-14T02:14:16.676Z,65.43
2019-01-14T02:19:22.365Z,65.23
2019-01-14T02:24:27.955Z,65.02
2019-01-14T02:29:33.527Z,66.30
2019-01-14T02:34:39.144Z,65.58
2019-01-14T02:39:44.748Z,64.34
2019-01-14T02:44:51.122Z,63.88
2019-01-14T02:49:57.835Z,62.82
2019-01-14T02:55:05.150Z,63.11
2019-01-14T03:00:15.200Z,62.34
2019-01-14T03:05:21.025Z,62.96
2019-01-14T03:10:26.634Z,61.78
2019-01-14T03:15:32.285Z,62.62
2019-01-14T03:20:37.962Z,63.74
2019-01-14T03:25:43.894Z,63.49
2019-01-14T03:30:49.499Z,64.00
2019-01-14T03:35:55.559Z,64.14
2019-01-14T03:41:01.324Z,63.68
2019-01-14T03:46:08.539Z,62.98
2019-01-14T03:51:14.154Z,63.15
2019-01-14T03:56:19.867Z,62.88
2019-01-14T04:01:25.487Z,63.33
2019-01-14T04:06:31.120Z,63.44
2019-01-14T04:11:36.968Z,62.06
2019-01-14T04:16:43.670Z,62.64
2019-01-14T04:21:49.274Z,62.26
2019-01-14T04:26:55.481Z,61.37
2019-01-14T04:32:01.104Z,60.53
2019-01-14T04:37:08.332Z,60.43
2019-01-14T04:42:13.970Z,59.42
2019-01-14T04:47:19.730Z,59.84
2019-01-14T04:52:25.366Z,59.33
2019-01-14T04:57:32.107Z,60.19
2019-01-14T05:02:37.689Z,60.08
2019-01-14T05:07:43.435Z,60.49
2019-01-14T05:12:49.248Z,59.91
2019-01-14T05:17:54.839Z,60.23
2019-01-14T05:23:00.470Z,60.54
2019-01-14T05:28:06.169Z,60.10
2019-01-14T05:33:11.751Z,59.22
2019-01-14T05:38:17.357Z,59.25
2019-01-14T05:43:23.000Z,60.11
2019-01-14T05:48:29.465Z,59.96
2019-01-14T05:53:35.065Z,59.99
2019-01-14T05:58:40.713Z,59.71
2019-01-14T06:03:46.270Z,60.47
2019-01-14T06:08:51.934Z,60.63
2019-01-14T06:13:57.536Z,59.27
2019-01-14T06:19:03.306Z,59.82
2019-01-14T06:24:08.966Z,59.12
2019-01-14T06:29:15.758Z,58.94
2019-01-14T06:34:21.360Z,58.57
2019-01-14T06:39:26.969Z,58.67
2019-01-14T06:44:33.220Z,59.00
2019-01-14T06:49:40.404Z,59.23
2019-01-14T06:54:46.082Z,59.93
2019-01-14T06:59:51.764Z,59.66
2019-01-14T07:04:57.372Z,59.56
2019-01-14T07:10:03.237Z,60.07
2019-01-14T07:15:09.527Z,59.54
2019-01-14T07:20:16.747Z,60.12
2019-01-14T07:25:22.439Z,60.04
2019-01-14T07:30:28.476Z,61.01
2019-01-14T07:35:34.103Z,61.27
2019-01-14T07:40:39.723Z,61.80
2019-01-14T07:45:45.488Z,64.32
2019-01-14T07:50:53.932Z,63.79
2019-01-14T07:55:59.550Z,64.19
2019-01-14T08:01:06.538Z,62.94
2019-01-14T08:06:12.471Z,61.35
2019-01-14T08:11:18.301Z,62.08
2019-01-14T08:16:23.885Z,62.26
2019-01-14T08:21:29.503Z,61.63
2019-01-14T08:26:35.757Z,61.27
2019-01-14T08:31:41.426Z,61.07
2019-01-14T08:36:47.010Z,59.94
2019-01-14T08:41:56.078Z,59.68
2019-01-14T08:47:01.681Z,60.09
2019-01-14T08:52:08.981Z,61.19
2019-01-14T08:57:16.195Z,61.41
2019-01-14T09:02:21.858Z,62.21
2019-01-14T09:07:28.161Z,62.51
2019-01-14T09:12:34.135Z,62.32
2019-01-14T09:17:39.900Z,62.58
2019-01-14T09:22:45.532Z,62.59
2019-01-14T09:27:51.450Z,62.13
2019-01-14T09:32:57.306Z,60.28
2019-01-14T09:38:03.099Z,59.10
2019-01-14T09:43:08.851Z,57.75
2019-01-14T09:48:14.556Z,57.12
2019-01-14T09:53:20.269Z,55.79
2019-01-14T09:58:25.942Z,55.57
2019-01-14T10:03:31.606Z,55.37
2019-01-14T10:08:43.088Z,54.28
2019-01-14T10:13:46.123Z,54.49
2019-01-14T10:18:51.735Z,54.89
2019-01-14T10:23:57.345Z,54.36
2019-01-14T10:29:03.132Z,54.81
2019-01-14T10:34:08.789Z,54.58
2019-01-14T10:39:14.427Z,54.51
2019-01-14T10:44:20.065Z,54.76
2019-01-14T10:49:25.676Z,55.07
2019-01-14T10:54:31.493Z,55.75
2019-01-14T11:04:48.133Z,54.73
2019-01-14T11:09:54.100Z,55.12
2019-01-14T11:15:02.876Z,54.97
2019-01-14T11:20:14.104Z,53.66
2019-01-14T11:25:20.290Z,54.05
2019-01-14T11:30:33.293Z,55.37
2019-01-14T11:35:40.378Z,55.23
2019-01-14T11:40:45.999Z,55.32
2019-01-14T11:45:52.944Z,55.86
2019-01-14T11:50:58.890Z,56.90
2019-01-14T11:56:07.049Z,56.74
2019-01-14T12:01:12.703Z,56.79
2019-01-14T12:06:18.326Z,55.03
2019-01-14T12:11:23.958Z,54.11
2019-01-14T12:16:29.611Z,52.90
2019-01-14T12:21:36.772Z,52.65
2019-01-14T12:26:43.617Z,52.84
2019-01-14T12:31:49.268Z,53.22
2019-01-14T12:36:55.323Z,52.23
2019-01-14T12:42:01.013Z,50.85
2019-01-14T12:47:07.372Z,52.02
2019-01-14T12:52:13.081Z,50.45
2019-01-14T12:57:19.495Z,50.93
2019-01-14T13:02:24.891Z,59.16
2019-01-14T13:07:30.549Z,51.37
2019-01-14T13:12:36.176Z,47.35
2019-01-14T13:17:41.789Z,47.77
2019-01-14T13:22:47.453Z,48.25
2019-01-14T13:27:53.197Z,48.06
2019-01-14T13:32:59.346Z,47.88
2019-01-14T13:38:05.073Z,48.41
2019-01-14T13:43:11.042Z,53.86
2019-01-14T13:48:16.651Z,57.85
2019-01-14T13:53:22.812Z,58.82
2019-01-14T13:58:28.419Z,59.63
2019-01-14T14:03:34.079Z,61.79
2019-01-14T14:08:39.783Z,62.87
2019-01-14T14:13:45.389Z,63.89
2019-01-14T14:18:51.217Z,64.67
2019-01-14T14:23:57.297Z,64.51
2019-01-14T14:29:02.950Z,62.88
2019-01-14T14:34:08.656Z,63.12
2019-01-14T14:39:14.342Z,75.17
2019-01-14T14:44:19.931Z,78.13
2019-01-14T14:49:25.524Z,76.32
2019-01-14T14:59:36.145Z,66.50
2019-01-14T15:04:41.854Z,64.09
2019-01-14T15:09:47.507Z,63.60
2019-01-14T15:14:53.152Z,62.44
2019-01-14T15:19:58.814Z,61.36
2019-01-14T15:25:07.962Z,61.28
2019-01-14T15:30:17.186Z,61.34
2019-01-14T15:35:22.892Z,62.30
2019-01-14T15:40:30.845Z,62.10
2019-01-14T15:45:36.862Z,62.29
2019-01-14T15:50:42.490Z,63.06
2019-01-14T15:55:48.280Z,63.03
2019-01-14T16:00:54.452Z,61.81
2019-01-14T16:06:01.074Z,62.19
2019-01-14T16:11:08.221Z,62.49
2019-01-14T16:16:13.890Z,63.54
2019-01-14T16:21:20.165Z,62.96
2019-01-14T16:26:25.859Z,63.17
2019-01-14T16:31:31.606Z,62.88
2019-01-14T16:36:37.243Z,62.93
2019-01-14T16:41:42.989Z,63.24
2019-01-14T16:46:50.249Z,63.92
2019-01-14T16:51:58.330Z,63.67
2019-01-14T16:57:09.481Z,65.33
2019-01-14T17:02:15.663Z,65.34
2019-01-14T17:07:21.359Z,65.82
2019-01-14T17:12:27.105Z,66.39
2019-01-14T17:17:36.094Z,67.30
2019-01-14T17:22:44.539Z,68.02
2019-01-14T17:27:51.158Z,68.39
2019-01-14T17:32:56.884Z,67.66
2019-01-14T17:38:02.669Z,68.61
2019-01-14T17:43:11.498Z,68.04
2019-01-14T17:48:19.217Z,67.05
2019-01-14T17:53:27.028Z,66.98
2019-01-14T17:58:36.729Z,65.78
2019-01-14T18:03:48.661Z,66.33
2019-01-14T18:08:57.882Z,66.28
2019-01-14T18:14:10.795Z,65.53
2019-01-14T18:19:21.438Z,65.17
2019-01-14T18:24:33.312Z,65.19
2019-01-14T18:29:44.708Z,64.71
2019-01-14T18:34:54.654Z,64.24
2019-01-14T18:40:00.515Z,64.53
2019-01-14T18:45:08.448Z,64.04
2019-01-14T18:50:18.006Z,63.73
2019-01-14T18:55:23.804Z,63.62
2019-01-14T19:00:31.089Z,63.92
2019-01-14T19:05:37.251Z,64.22
2019-01-14T19:10:43.052Z,64.07
2019-01-14T19:15:48.778Z,64.42
2019-01-14T19:20:55.990Z,64.19
2019-01-14T19:26:01.993Z,64.10
2019-01-14T19:31:09.214Z,64.18
2019-01-14T19:36:17.211Z,64.86
2019-01-14T19:41:25.593Z,64.23
2019-01-14T19:46:32.172Z,63.78
2019-01-14T19:51:38.805Z,64.43
2019-01-14T19:56:47.601Z,67.15
2019-01-14T20:01:54.031Z,64.54
2019-01-14T20:07:10.472Z,64.66
2019-01-14T20:12:13.059Z,65.12
2019-01-14T20:17:20.341Z,65.83
2019-01-14T20:22:29.551Z,66.20
2019-01-14T20:27:35.393Z,66.08
2019-01-14T20:32:41.666Z,66.11
2019-01-14T20:37:48.307Z,66.00
2019-01-14T20:42:54.458Z,66.03
2019-01-14T20:48:07.666Z,65.39
2019-01-14T20:53:14.361Z,65.82
2019-01-14T20:58:21.833Z,65.64
2019-01-14T21:03:27.771Z,65.55
2019-01-14T21:08:33.539Z,65.25
2019-01-14T21:13:39.437Z,65.65
2019-01-14T21:18:45.143Z,65.43
2019-01-14T21:23:51.919Z,65.73
2019-01-14T21:28:58.000Z,64.87
2019-01-14T21:34:03.805Z,64.34
2019-01-14T21:39:12.236Z,65.17
2019-01-14T21:44:21.389Z,65.32
2019-01-14T21:49:29.253Z,65.04
2019-01-14T21:54:35.028Z,63.54
2019-01-14T21:59:41.910Z,63.98
2019-01-14T22:04:47.657Z,63.29
2019-01-14T22:09:54.634Z,63.42
2019-01-14T22:15:00.547Z,62.86
2019-01-14T22:20:11.646Z,62.99
2019-01-14T22:25:17.413Z,62.61
2019-01-14T22:30:26.034Z,62.78
2019-01-14T22:35:31.823Z,62.65
2019-01-14T22:40:37.803Z,62.66
2019-01-14T22:45:43.486Z,63.51
2019-01-14T22:50:49.165Z,63.30
2019-01-14T22:55:56.162Z,63.69
2019-01-14T23:01:22.284Z,63.42
2019-01-14T23:06:41.517Z,63.32
2019-01-14T23:11:53.016Z,63.09
2019-01-14T23:16:55.254Z,62.52
2019-01-14T23:22:00.886Z,62.63
2019-01-14T23:27:06.822Z,62.59
2019-01-14T23:32:12.470Z,62.69
2019-01-14T23:37:18.082Z,62.86
2019-01-14T23:42:23.735Z,62.97
2019-01-14T23:47:29.357Z,62.85
2019-01-14T23:59:09.912Z,63.89
